Time;durP1;ratioP1;P1;durP2;ratioP2;P2;SDS_P1;SDS_P2;PMS_P1;PMS_P2;Temp;Humidity;BMP_temperature;BMP_pressure;BME280_temperature;BME280_humidity;BME280_pressure;Samples;Min_cycle;Max_cycle;Signal;HPM_P1;HPM_P2
2022/01/14 00:00:04;;;;;;;;;;;;;;;-4.73;100.00;97715.06;1022742;28;20805;-67
2022/01/14 00:00:35;;;;;;;;;;;;;;;-4.72;100.00;97711.59;1028288;28;19983;-67
2022/01/14 00:01:05;;;;;;;;;;;;;;;-4.69;100.00;97713.09;1024309;28;20376;-68
2022/01/14 00:01:35;;;;;;;;;;;;;;;-4.69;100.00;97716.47;1021907;29;20009;-70
2022/01/14 00:02:06;;;;;;;;;;;;;;;-4.67;100.00;97714.59;1022230;29;19982;-66
2022/01/14 00:02:36;;;;;;;;;;;;;;;-4.65;100.00;97712.75;1022257;29;20428;-68
2022/01/14 00:03:06;;;;;;;;;;;;;;;-4.64;100.00;97716.13;1022077;28;20476;-69
2022/01/14 00:03:37;;;;;;;;;;;;;;;-4.64;100.00;97716.94;1029828;28;19909;-68
2022/01/14 00:04:07;;;;;;;;;;;;;;;-4.61;100.00;97715.88;1029119;28;19914;-67
2022/01/14 00:04:37;;;;;;;;;;;;;;;-4.57;100.00;97714.72;1034260;28;19940;-67
2022/01/14 00:05:08;;;;;;;;;;;;;;;-4.58;100.00;97719.03;1026295;28;20424;-70
2022/01/14 00:05:38;;;;;;;;;;;;;;;-4.59;100.00;97719.16;1025768;28;20013;-66
2022/01/14 00:06:08;;;;;;;;;;;;;;;-4.62;100.00;97720.19;1026155;28;19942;-68
2022/01/14 00:06:39;;;;;;;;;;;;;;;-4.69;100.00;97711.38;1030719;28;19922;-69
2022/01/14 00:07:09;;;;;;;;;;;;;;;-4.71;100.00;97710.66;1034002;28;19913;-69
2022/01/14 00:07:39;;;;;;;;;;;;;;;-4.70;100.00;97714.84;1029940;28;20304;-70
2022/01/14 00:08:10;;;;;;;;;;;;;;;-4.67;100.00;97713.78;1029177;28;19925;-68
2022/01/14 00:08:40;;;;;;;;;;;;;;;-4.71;100.00;97717.53;1029519;28;20021;-66
2022/01/14 00:09:12;;;;;;;;;;;;;;;-4.73;100.00;97712.50;1032814;28;19960;-66
2022/01/14 00:09:42;;;;;;;;;;;;;;;-4.76;100.00;97708.47;1029364;28;19922;-68
2022/01/14 00:10:12;;;;;;;;;;;;;;;-4.75;100.00;97712.63;1028523;28;20380;-69
2022/01/14 00:10:48;;;;;;;;;;;;;;;-4.73;100.00;97709.94;1024882;28;20383;-67
2022/01/14 00:11:19;;;;;;;;;;;;;;;-4.74;100.00;97708.31;1027065;28;19919;-69
2022/01/14 00:11:53;;;;;;;;;;;;;;;-4.79;100.00;97708.69;1029990;28;19914;-68
2022/01/14 00:12:27;;;;;;;;;;;;;;;-4.73;100.00;97704.81;1031658;28;19921;-67
2022/01/14 00:13:06;;;;;;;;;;;;;;;-4.76;100.00;97703.34;1033641;28;19914;-69
2022/01/14 00:14:22;;;;;;;;;;;;;;;-4.89;100.00;97701.84;1035485;28;20303;-69
2022/01/14 00:15:23;;;;;;;;;;;;;;;-4.83;100.00;97698.78;1029868;28;20335;-68
2022/01/14 00:15:51;;;;;;;;;;;;;;;-4.82;100.00;97700.44;1030148;28;19914;-69
2022/01/14 00:16:22;;;;;;;;;;;;;;;-4.80;100.00;97701.09;1026662;28;19910;-68
2022/01/14 00:16:52;;;;;;;;;;;;;;;-4.78;100.00;97706.94;1031646;28;19957;-69
2022/01/14 00:17:22;;;;;;;;;;;;;;;-4.76;100.00;97702.53;1028188;28;19913;-68
2022/01/14 00:17:53;;;;;;;;;;;;;;;-4.77;100.00;97703.44;1024202;28;19909;-70
2022/01/14 00:18:23;;;;;;;;;;;;;;;-4.74;100.00;97698.91;1025756;28;19989;-69
2022/01/14 00:18:53;;;;;;;;;;;;;;;-4.72;100.00;97701.34;1028589;28;19949;-68
2022/01/14 00:19:24;;;;;;;;;;;;;;;-4.68;100.00;97696.81;1026226;28;19914;-67
2022/01/14 00:19:54;;;;;;;;;;;;;;;-4.69;100.00;97701.13;1024486;28;19945;-70
2022/01/14 00:20:24;;;;;;;;;;;;;;;-4.70;100.00;97698.66;1024154;28;19965;-68
2022/01/14 00:20:54;;;;;;;;;;;;;;;-4.71;100.00;97697.03;1030620;28;20569;-67
2022/01/14 00:21:25;;;;;;;;;;;;;;;-4.71;100.00;97692.72;1032686;28;19917;-69
2022/01/14 00:21:56;;;;;;;;;;;;;;;-4.75;100.00;97696.47;1026320;28;20060;-67
2022/01/14 00:22:28;;;;;;;;;;;;;;;-4.79;100.00;97701.00;1027905;28;19960;-70
2022/01/14 00:22:59;;;;;;;;;;;;;;;-4.77;100.00;97696.56;1026760;28;20383;-70
2022/01/14 00:23:35;;;;;;;;;;;;;;;-4.82;100.00;97700.44;1022891;28;19989;-69
2022/01/14 00:31:36;;;;;;;;;;;;;;;-4.81;100.00;97695.19;1030446;28;20434;-69
2022/01/14 00:32:00;;;;;;;;;;;;;;;-4.85;100.00;97686.13;1031194;28;19906;-69
2022/01/14 00:32:43;;;;;;;;;;;;;;;-4.84;100.00;97687.72;1030920;28;20434;-69
2022/01/14 00:33:16;;;;;;;;;;;;;;;-4.79;100.00;97690.78;1026572;28;20280;-69
2022/01/14 00:33:47;;;;;;;;;;;;;;;-4.75;100.00;97691.34;1022925;29;19915;-69
2022/01/14 00:34:17;;;;;;;;;;;;;;;-4.75;100.00;97687.03;1026502;28;19914;-70
2022/01/14 00:34:48;;;;;;;;;;;;;;;-4.74;100.00;97687.84;1022593;29;19942;-70
2022/01/14 00:35:19;;;;;;;;;;;;;;;-4.77;100.00;97693.19;1022908;28;20316;-70
2022/01/14 00:35:49;;;;;;;;;;;;;;;-4.75;100.00;97692.16;1018575;29;19911;-70
2022/01/14 00:36:20;;;;;;;;;;;;;;;-4.80;100.00;97689.13;1022658;29;20433;-70
2022/01/14 00:36:50;;;;;;;;;;;;;;;-4.79;100.00;97690.78;1025968;28;19977;-70
2022/01/14 00:37:21;;;;;;;;;;;;;;;-4.83;100.00;97693.66;1026642;28;19949;-70
2022/01/14 00:37:51;;;;;;;;;;;;;;;-4.81;100.00;97687.50;1026961;28;20587;-70
2022/01/14 00:38:22;;;;;;;;;;;;;;;-4.77;100.00;97693.19;1026759;28;19911;-70
2022/01/14 00:38:52;;;;;;;;;;;;;;;-4.72;100.00;97696.22;1026542;28;19993;-70
2022/01/14 00:39:23;;;;;;;;;;;;;;;-4.70;100.00;97693.53;1027868;28;19917;-69
2022/01/14 00:39:53;;;;;;;;;;;;;;;-4.70;100.00;97693.53;1019238;28;20431;-69
2022/01/14 00:40:24;;;;;;;;;;;;;;;-4.73;100.00;97689.47;1026706;28;19910;-69
2022/01/14 00:40:54;;;;;;;;;;;;;;;-4.87;100.00;97672.59;1023800;28;19914;-69
2022/01/14 00:41:25;;;;;;;;;;;;;;;-4.68;100.00;97695.06;1023262;28;19910;-70
2022/01/14 00:41:56;;;;;;;;;;;;;;;-4.66;100.00;97689.81;1027144;28;19906;-70
2022/01/14 00:42:26;;;;;;;;;;;;;;;-4.65;100.00;97682.00;1027079;28;19916;-70
2022/01/14 00:42:57;;;;;;;;;;;;;;;-4.66;100.00;97689.81;1027197;28;20739;-70
2022/01/14 00:43:27;;;;;;;;;;;;;;;-4.62;100.00;97691.22;1023934;29;20288;-71
2022/01/14 00:44:01;;;;;;;;;;;;;;;-4.63;100.00;97687.81;1022631;28;19978;-69
2022/01/14 00:44:31;;;;;;;;;;;;;;;-4.67;100.00;97678.75;1023262;28;19910;-69
2022/01/14 00:45:06;;;;;;;;;;;;;;;-4.67;100.00;97683.88;1023496;28;19910;-71
2022/01/14 00:45:37;;;;;;;;;;;;;;;-4.68;100.00;97676.31;1031052;28;20004;-70
2022/01/14 00:46:10;;;;;;;;;;;;;;;-4.75;100.00;97679.34;1031770;28;19964;-70
2022/01/14 00:46:41;;;;;;;;;;;;;;;-4.76;100.00;97680.28;1031314;28;19910;-70
2022/01/14 00:47:12;;;;;;;;;;;;;;;-4.76;100.00;97679.47;1023395;28;19907;-68
2022/01/14 00:47:42;;;;;;;;;;;;;;;-4.78;100.00;97671.09;1027220;28;20372;-68
2022/01/14 00:48:12;;;;;;;;;;;;;;;-4.81;100.00;97674.69;1023452;29;19913;-68
2022/01/14 00:48:43;;;;;;;;;;;;;;;-4.77;100.00;97670.16;1023455;28;19942;-69
2022/01/14 00:49:13;;;;;;;;;;;;;;;-4.81;100.00;97673.88;1031093;28;19929;-68
2022/01/14 00:49:44;;;;;;;;;;;;;;;-4.79;100.00;97677.16;1027061;28;19915;-73
2022/01/14 00:50:14;;;;;;;;;;;;;;;-4.76;100.00;97674.38;1019379;29;19918;-70
2022/01/14 00:50:45;;;;;;;;;;;;;;;-4.74;100.00;97669.91;1025997;28;20018;-71
2022/01/14 00:51:15;;;;;;;;;;;;;;;-4.75;100.00;97668.31;1026953;28;19918;-70
2022/01/14 00:51:46;;;;;;;;;;;;;;;-4.75;100.00;97674.22;1031807;28;19910;-69
2022/01/14 00:52:16;;;;;;;;;;;;;;;-4.77;100.00;97667.59;1033295;28;19926;-70
2022/01/14 00:52:47;;;;;;;;;;;;;;;-4.75;100.00;97670.84;1030672;28;19906;-70
2022/01/14 00:53:17;;;;;;;;;;;;;;;-4.82;100.00;97674.84;1031951;28;19917;-70
2022/01/14 00:53:48;;;;;;;;;;;;;;;-4.86;100.00;97674.25;1032473;28;19956;-70
2022/01/14 00:54:18;;;;;;;;;;;;;;;-4.85;100.00;97680.19;1032482;28;19961;-70
2022/01/14 00:54:48;;;;;;;;;;;;;;;-4.86;100.00;97679.38;1030338;28;19910;-68
2022/01/14 00:55:26;;;;;;;;;;;;;;;-4.87;100.00;97676.91;1028350;29;19906;-73
2022/01/14 00:56:07;;;;;;;;;;;;;;;-4.85;100.00;97675.88;1023390;29;19907;-71
2022/01/14 00:57:26;;;;;;;;;;;;;;;-4.81;100.00;97673.88;1029394;28;19906;-71
2022/01/14 00:59:18;;;;;;;;;;;;;;;-4.72;100.00;97674.94;1031255;28;19921;-70
2022/01/14 00:59:48;;;;;;;;;;;;;;;-4.72;100.00;97675.75;1030951;28;20276;-70
2022/01/14 01:00:20;;;;;;;;;;;;;;;-4.71;100.00;97664.56;1030792;28;19910;-70
2022/01/14 01:00:50;;;;;;;;;;;;;;;-4.78;100.00;97673.66;1029816;28;19914;-70
2022/01/14 01:01:20;;;;;;;;;;;;;;;-4.87;100.00;97674.34;1031727;28;19914;-70
2022/01/14 01:01:51;;;;;;;;;;;;;;;-4.86;100.00;97678.53;1035133;28;19913;-71
2022/01/14 01:02:22;;;;;;;;;;;;;;;-4.85;100.00;97677.63;1035156;28;19920;-70
2022/01/14 01:02:52;;;;;;;;;;;;;;;-4.84;100.00;97679.25;1031525;28;19944;-70
2022/01/14 01:03:27;;;;;;;;;;;;;;;-4.94;100.00;97675.75;1031294;28;19913;-70
2022/01/14 01:03:57;;;;;;;;;;;;;;;-4.90;100.00;97672.84;1023645;28;20412;-70
2022/01/14 01:04:35;;;;;;;;;;;;;;;-4.86;100.00;97681.09;1027742;28;19914;-71
2022/01/14 01:05:05;;;;;;;;;;;;;;;-4.87;100.00;97671.78;1031375;28;20307;-70
2022/01/14 01:05:36;;;;;;;;;;;;;;;-4.89;100.00;97679.59;1028746;28;19956;-70
2022/01/14 01:06:07;;;;;;;;;;;;;;;-4.88;100.00;97670.19;1028208;28;19933;-71
2022/01/14 01:06:37;;;;;;;;;;;;;;;-4.91;100.00;97671.22;1027717;28;19910;-69
2022/01/14 01:07:08;;;;;;;;;;;;;;;-4.92;100.00;97673.91;1027348;28;19906;-69
2022/01/14 01:07:43;;;;;;;;;;;;;;;-4.90;100.00;97666.91;1019170;29;19914;-69
2022/01/14 01:08:20;;;;;;;;;;;;;;;-4.86;100.00;97670.84;1019473;29;19915;-70
2022/01/14 01:08:52;;;;;;;;;;;;;;;-4.85;100.00;97669.94;1027445;28;20423;-69
2022/01/14 01:09:26;;;;;;;;;;;;;;;-4.82;100.00;97673.06;1025377;28;20493;-69
2022/01/14 01:09:56;;;;;;;;;;;;;;;-4.86;100.00;97669.13;1022983;29;19977;-69
2022/01/14 01:10:27;;;;;;;;;;;;;;;-4.88;100.00;97665.88;1026689;28;19942;-70
2022/01/14 01:10:57;;;;;;;;;;;;;;;-4.91;100.00;97675.53;1027033;28;19922;-70
2022/01/14 01:11:35;;;;;;;;;;;;;;;-4.86;100.00;97674.25;1023365;29;20324;-70
2022/01/14 01:12:53;;;;;;;;;;;;;;;-4.88;100.00;97675.28;1028529;28;19919;-70
2022/01/14 01:13:32;;;;;;;;;;;;;;;-4.88;100.00;97681.22;1035301;28;19909;-70
2022/01/14 01:14:11;;;;;;;;;;;;;;;-4.93;100.00;97677.38;1027716;28;19914;-70
2022/01/14 01:15:03;;;;;;;;;;;;;;;-4.90;100.00;97677.16;1027300;28;19910;-69
2022/01/14 01:15:33;;;;;;;;;;;;;;;-4.92;100.00;97676.47;1028373;28;19957;-69
2022/01/14 01:16:03;;;;;;;;;;;;;;;-4.95;100.00;97671.59;1036631;28;19916;-71
2022/01/14 01:16:34;;;;;;;;;;;;;;;-5.00;100.00;97675.31;1035158;28;19914;-68
2022/01/14 01:17:04;;;;;;;;;;;;;;;-5.05;100.00;97677.41;1031235;28;20332;-70
2022/01/14 01:17:35;;;;;;;;;;;;;;;-5.05;100.00;97681.72;1031530;28;19933;-69
2022/01/14 01:18:05;;;;;;;;;;;;;;;-5.04;100.00;97680.75;1023117;28;19997;-70
2022/01/14 01:18:36;;;;;;;;;;;;;;;-5.02;100.00;97682.28;1027272;28;19915;-70
2022/01/14 01:19:07;;;;;;;;;;;;;;;-5.09;100.00;97676.00;1027363;28;20190;-69
2022/01/14 01:19:37;;;;;;;;;;;;;;;-5.08;100.00;97680.19;1027116;28;19914;-71
2022/01/14 01:20:12;;;;;;;;;;;;;;;-5.08;100.00;97676.81;1022318;28;20388;-69
2022/01/14 01:20:42;;;;;;;;;;;;;;;-5.09;100.00;97677.75;1023123;29;19930;-70
2022/01/14 01:21:12;;;;;;;;;;;;;;;-5.12;100.00;97683.91;1019647;29;20310;-71
2022/01/14 01:21:43;;;;;;;;;;;;;;;-5.16;100.00;97682.53;1032048;28;19918;-69
2022/01/14 01:22:13;;;;;;;;;;;;;;;-5.20;100.00;97681.09;1031309;28;19924;-69
2022/01/14 01:22:48;;;;;;;;;;;;;;;-5.23;100.00;97676.25;1031305;28;19916;-70
2022/01/14 01:23:18;;;;;;;;;;;;;;;-5.26;100.00;97679.03;1023282;28;19914;-68
2022/01/14 01:23:49;;;;;;;;;;;;;;;-5.29;100.00;97681.81;1023106;29;19950;-69
2022/01/14 01:24:20;;;;;;;;;;;;;;;-5.33;100.00;97675.28;1027575;28;19914;-69
2022/01/14 01:24:50;;;;;;;;;;;;;;;-5.33;100.00;97678.69;1029415;28;20390;-70
2022/01/14 01:25:21;;;;;;;;;;;;;;;-5.32;100.00;97676.94;1028381;28;19914;-70
2022/01/14 01:25:59;;;;;;;;;;;;;;;-5.39;100.00;97670.66;1031813;28;19955;-70
2022/01/14 01:26:36;;;;;;;;;;;;;;;-5.43;100.00;97671.78;1031346;28;19910;-70
2022/01/14 01:27:09;;;;;;;;;;;;;;;-5.41;100.00;97677.59;1030508;28;19993;-69
2022/01/14 01:27:42;;;;;;;;;;;;;;;-5.37;100.00;97673.88;1031217;28;19906;-69
2022/01/14 01:28:12;;;;;;;;;;;;;;;-5.42;100.00;97669.13;1023103;29;19918;-70
2022/01/14 01:28:59;;;;;;;;;;;;;;;-5.36;100.00;97678.09;1031483;28;20293;-70
2022/01/14 01:29:48;;;;;;;;;;;;;;;-5.36;100.00;97672.97;1030178;28;20340;-70
2022/01/14 01:30:49;;;;;;;;;;;;;;;-5.25;100.00;97678.09;1027064;28;19910;-69
2022/01/14 01:31:36;;;;;;;;;;;;;;;-5.23;100.00;97678.81;1031295;28;19925;-70
2022/01/14 01:32:06;;;;;;;;;;;;;;;-5.25;100.00;97685.75;1037199;28;19913;-67
2022/01/14 01:32:37;;;;;;;;;;;;;;;-5.32;100.00;97682.84;1035893;28;20009;-69
2022/01/14 01:33:08;;;;;;;;;;;;;;;-5.30;100.00;97681.00;1026118;28;20415;-69
2022/01/14 01:33:38;;;;;;;;;;;;;;;-5.28;100.00;97683.44;1024221;28;19954;-68
2022/01/14 01:34:09;;;;;;;;;;;;;;;-5.29;100.00;97684.38;1023613;29;19918;-71
2022/01/14 01:34:40;;;;;;;;;;;;;;;-5.29;100.00;97681.81;1023377;28;19907;-69
2022/01/14 01:35:10;;;;;;;;;;;;;;;-5.32;100.00;97685.41;1026635;28;19993;-70
2022/01/14 01:35:42;;;;;;;;;;;;;;;-5.27;100.00;97679.94;1026901;28;19915;-69
2022/01/14 01:36:12;;;;;;;;;;;;;;;-5.21;100.00;97676.94;1027240;28;19910;-70
2022/01/14 01:36:44;;;;;;;;;;;;;;;-5.19;100.00;97679.38;1027440;28;19914;-71
2022/01/14 01:37:14;;;;;;;;;;;;;;;-5.16;100.00;97685.09;1023959;28;19903;-70
2022/01/14 01:37:45;;;;;;;;;;;;;;;-5.14;100.00;97685.75;1027403;28;20638;-71
2022/01/14 01:38:16;;;;;;;;;;;;;;;-5.12;100.00;97681.34;1031552;28;19960;-69
2022/01/14 01:38:47;;;;;;;;;;;;;;;-5.09;100.00;97678.56;1025822;28;20013;-69
2022/01/14 01:39:18;;;;;;;;;;;;;;;-5.07;100.00;97674.13;1023394;28;20349;-69
2022/01/14 01:39:48;;;;;;;;;;;;;;;-5.05;100.00;97674.84;1022615;29;19957;-68
2022/01/14 01:40:22;;;;;;;;;;;;;;;-5.11;100.00;97674.50;1024001;28;20426;-70
2022/01/14 01:40:53;;;;;;;;;;;;;;;-5.12;100.00;97667.75;1023461;29;19945;-70
2022/01/14 01:41:23;;;;;;;;;;;;;;;-5.12;100.00;97668.56;1027009;28;19980;-68
2022/01/14 01:41:54;;;;;;;;;;;;;;;-5.13;100.00;97666.94;1026691;28;19910;-70
2022/01/14 01:42:28;;;;;;;;;;;;;;;-5.10;100.00;97664.13;1031517;28;19906;-68
2022/01/14 01:43:02;;;;;;;;;;;;;;;-5.09;100.00;97658.09;1026926;28;19984;-69
2022/01/14 01:43:33;;;;;;;;;;;;;;;-5.12;100.00;97662.63;1027013;28;20500;-69
2022/01/14 01:44:06;;;;;;;;;;;;;;;-5.10;100.00;97666.69;1029202;28;19906;-69
2022/01/14 01:44:37;;;;;;;;;;;;;;;-5.10;100.00;97660.75;1032061;28;20453;-68
2022/01/14 01:45:10;;;;;;;;;;;;;;;-5.09;100.00;97660.66;1031375;28;19917;-68
2022/01/14 01:45:41;;;;;;;;;;;;;;;-5.06;100.00;97659.63;1030924;28;19996;-70
2022/01/14 01:46:11;;;;;;;;;;;;;;;-5.10;100.00;97658.19;1032011;28;19910;-69
2022/01/14 01:46:43;;;;;;;;;;;;;;;-5.09;100.00;97663.22;1035480;28;19914;-70
2022/01/14 01:47:13;;;;;;;;;;;;;;;-5.13;100.00;97659.25;1034794;28;19909;-70
2022/01/14 01:47:48;;;;;;;;;;;;;;;-5.13;100.00;97656.72;1035569;28;19917;-68
2022/01/14 01:48:19;;;;;;;;;;;;;;;-5.20;100.00;97658.06;1035257;28;20388;-70
2022/01/14 01:48:51;;;;;;;;;;;;;;;-5.18;100.00;97658.78;1034150;28;19913;-71
2022/01/14 01:49:22;;;;;;;;;;;;;;;-5.22;100.00;97667.63;1031294;28;19910;-69
2022/01/14 01:49:53;;;;;;;;;;;;;;;-5.26;100.00;97667.03;1031100;28;20016;-68
2022/01/14 01:50:24;;;;;;;;;;;;;;;-5.23;100.00;97655.78;1030095;28;19902;-69
2022/01/14 01:50:57;;;;;;;;;;;;;;;-5.28;100.00;97663.78;1031075;28;19917;-70
2022/01/14 01:51:28;;;;;;;;;;;;;;;-5.26;100.00;97659.38;1027279;28;19914;-73
2022/01/14 01:51:58;;;;;;;;;;;;;;;-5.27;100.00;97667.16;1027294;28;20387;-70
2022/01/14 01:52:28;;;;;;;;;;;;;;;-5.24;100.00;97654.13;1026750;28;19910;-68
2022/01/14 01:52:59;;;;;;;;;;;;;;;-5.24;100.00;97657.50;1027384;28;19922;-69
2022/01/14 01:53:31;;;;;;;;;;;;;;;-5.27;100.00;97654.34;1027168;28;19906;-68
2022/01/14 01:54:01;;;;;;;;;;;;;;;-5.24;100.00;97659.25;1018905;28;19954;-70
2022/01/14 01:54:32;;;;;;;;;;;;;;;-5.19;100.00;97662.28;1018345;29;19923;-69
2022/01/14 01:55:03;;;;;;;;;;;;;;;-5.18;100.00;97656.22;1023914;28;19914;-70
2022/01/14 01:55:33;;;;;;;;;;;;;;;-5.26;100.00;97663.69;1027562;28;20304;-69
2022/01/14 01:56:03;;;;;;;;;;;;;;;-5.22;100.00;97657.41;1027822;28;20005;-68
2022/01/14 01:56:34;;;;;;;;;;;;;;;-5.22;100.00;97657.41;1023903;29;20602;-69
2022/01/14 01:57:04;;;;;;;;;;;;;;;-5.26;100.00;97651.69;1031149;28;20299;-70
2022/01/14 01:57:34;;;;;;;;;;;;;;;-5.24;100.00;97660.06;1026832;28;19942;-70
2022/01/14 01:58:05;;;;;;;;;;;;;;;-5.22;100.00;97662.50;1027474;28;20012;-69
2022/01/14 01:58:35;;;;;;;;;;;;;;;-5.19;100.00;97656.34;1027621;28;19911;-70
2022/01/14 01:59:05;;;;;;;;;;;;;;;-5.19;100.00;97653.81;1027277;28;19991;-70
2022/01/14 01:59:36;;;;;;;;;;;;;;;-5.16;100.00;97656.94;1032038;28;19914;-70
2022/01/14 02:00:07;;;;;;;;;;;;;;;-5.19;100.00;97654.59;1031457;28;19980;-69
2022/01/14 02:00:37;;;;;;;;;;;;;;;-5.21;100.00;97653.91;1028055;28;19966;-70
2022/01/14 02:01:07;;;;;;;;;;;;;;;-5.27;100.00;97662.03;1031892;28;20015;-67
2022/01/14 02:01:38;;;;;;;;;;;;;;;-5.32;100.00;97662.38;1029730;28;19910;-70
2022/01/14 02:02:08;;;;;;;;;;;;;;;-5.28;100.00;97666.34;1027802;28;20009;-70
2022/01/14 02:02:39;;;;;;;;;;;;;;;-5.24;100.00;97669.47;1027782;28;19914;-69
2022/01/14 02:03:10;;;;;;;;;;;;;;;-5.24;100.00;97662.63;1024019;28;20266;-69
2022/01/14 02:03:40;;;;;;;;;;;;;;;-5.19;100.00;97669.97;1027762;28;19918;-68
2022/01/14 02:04:11;;;;;;;;;;;;;;;-5.18;100.00;97665.66;1032003;28;20639;-68
2022/01/14 02:04:41;;;;;;;;;;;;;;;-5.15;100.00;97667.97;1028113;28;20300;-68
2022/01/14 02:05:12;;;;;;;;;;;;;;;-5.16;100.00;97664.63;1031112;28;19941;-71
2022/01/14 02:05:43;;;;;;;;;;;;;;;-5.16;100.00;97662.06;1027912;28;19918;-69
2022/01/14 02:06:14;;;;;;;;;;;;;;;-5.14;100.00;97664.47;1032132;28;20358;-69
2022/01/14 02:06:44;;;;;;;;;;;;;;;-5.11;100.00;97659.94;1031786;28;20069;-69
2022/01/14 02:07:14;;;;;;;;;;;;;;;-5.13;100.00;97668.66;1031882;28;19917;-69
2022/01/14 02:07:45;;;;;;;;;;;;;;;-5.10;100.00;97669.25;1031525;28;19918;-70
2022/01/14 02:08:15;;;;;;;;;;;;;;;-5.08;100.00;97667.38;1032273;28;19917;-69
2022/01/14 02:08:45;;;;;;;;;;;;;;;-5.07;100.00;97661.34;1028785;28;19922;-69
2022/01/14 02:09:16;;;;;;;;;;;;;;;-5.07;100.00;97663.09;1029591;28;19921;-70
2022/01/14 02:09:46;;;;;;;;;;;;;;;-5.07;100.00;97665.63;1027572;28;19929;-67
2022/01/14 02:10:16;;;;;;;;;;;;;;;-5.07;100.00;97661.34;1027040;28;19918;-70
2022/01/14 02:10:46;;;;;;;;;;;;;;;-5.06;100.00;97662.16;1027879;28;19926;-69
2022/01/14 02:11:17;;;;;;;;;;;;;;;-5.10;100.00;97660.75;1031982;28;19918;-69
2022/01/14 02:11:47;;;;;;;;;;;;;;;-5.08;100.00;97666.56;1035729;28;20299;-69
2022/01/14 02:12:19;;;;;;;;;;;;;;;-5.06;100.00;97657.06;1032009;28;20390;-69
2022/01/14 02:12:52;;;;;;;;;;;;;;;-5.06;100.00;97662.97;1031565;28;19922;-67
2022/01/14 02:13:22;;;;;;;;;;;;;;;-5.03;100.00;97662.75;1027860;28;19922;-69
2022/01/14 02:13:55;;;;;;;;;;;;;;;-5.04;100.00;97660.28;1028917;28;19918;-69
2022/01/14 02:14:52;;;;;;;;;;;;;;;-5.00;100.00;97659.13;1035528;28;19913;-69
2022/01/14 02:15:45;;;;;;;;;;;;;;;-5.00;100.00;97659.13;1034311;28;19913;-69
2022/01/14 02:22:09;;;;;;;;;;;;;;;-5.05;100.00;97667.16;1034852;28;19922;-69
2022/01/14 02:22:21;;;;;;;;;;;;;;;-5.11;100.00;97664.25;1032731;28;19921;-69
2022/01/14 02:22:53;;;;;;;;;;;;;;;-5.10;100.00;97663.31;1034168;28;19929;-71
2022/01/14 02:23:24;;;;;;;;;;;;;;;-5.06;100.00;97665.53;1036205;28;19948;-70
2022/01/14 02:24:57;;;;;;;;;;;;;;;-5.02;100.00;97664.38;1034845;28;19918;-71
2022/01/14 02:25:30;;;;;;;;;;;;;;;-5.15;100.00;97656.00;1035668;28;20310;-70
2022/01/14 02:26:00;;;;;;;;;;;;;;;-5.10;100.00;97658.19;1036318;28;19976;-68
2022/01/14 02:26:31;;;;;;;;;;;;;;;-5.11;100.00;97654.00;1037926;28;19913;-69
2022/01/14 02:27:01;;;;;;;;;;;;;;;-5.10;100.00;97656.44;1035694;28;20295;-69
2022/01/14 02:27:31;;;;;;;;;;;;;;;-5.05;100.00;97649.25;1032081;28;19910;-67
2022/01/14 02:28:10;;;;;;;;;;;;;;;-5.00;100.00;97654.84;1031743;28;19925;-70
2022/01/14 02:28:41;;;;;;;;;;;;;;;-5.02;100.00;97658.44;1032866;28;20449;-68
2022/01/14 02:29:11;;;;;;;;;;;;;;;-5.06;100.00;97657.88;1033192;28;19905;-70
2022/01/14 02:29:41;;;;;;;;;;;;;;;-5.05;100.00;97662.03;1031623;28;19914;-70
2022/01/14 02:30:12;;;;;;;;;;;;;;;-5.07;100.00;97660.53;1027278;28;19957;-70
2022/01/14 02:30:43;;;;;;;;;;;;;;;-5.12;100.00;97658.31;1023893;28;19934;-69
2022/01/14 02:31:13;;;;;;;;;;;;;;;-5.11;100.00;97654.00;1028547;28;19950;-70
2022/01/14 02:31:44;;;;;;;;;;;;;;;-5.10;100.00;97651.31;1031679;28;19981;-68
2022/01/14 02:32:14;;;;;;;;;;;;;;;-5.09;100.00;97655.53;1032150;28;19914;-70
2022/01/14 02:32:44;;;;;;;;;;;;;;;-5.07;100.00;97656.22;1032115;28;19910;-70
2022/01/14 02:33:15;;;;;;;;;;;;;;;-5.07;100.00;97648.53;1033514;28;20371;-70
2022/01/14 02:33:45;;;;;;;;;;;;;;;-5.12;100.00;97652.41;1031393;28;19918;-70
2022/01/14 02:34:16;;;;;;;;;;;;;;;-5.15;100.00;97645.75;1032175;28;19912;-70
2022/01/14 02:34:46;;;;;;;;;;;;;;;-5.15;100.00;97648.31;1027720;28;19910;-68
2022/01/14 02:35:16;;;;;;;;;;;;;;;-5.12;100.00;97652.41;1024021;28;19907;-70
2022/01/14 02:35:47;;;;;;;;;;;;;;;-5.08;100.00;97651.22;1019684;29;19911;-69
2022/01/14 02:36:17;;;;;;;;;;;;;;;-5.06;100.00;97647.63;1023856;29;19913;-70
2022/01/14 02:36:48;;;;;;;;;;;;;;;-5.03;100.00;97652.50;1024108;28;19961;-70
2022/01/14 02:37:20;;;;;;;;;;;;;;;-4.99;100.00;97648.78;1028046;28;20300;-69
2022/01/14 02:37:50;;;;;;;;;;;;;;;-4.95;100.00;97648.53;1028002;28;19906;-69
2022/01/14 02:38:20;;;;;;;;;;;;;;;-5.02;100.00;97646.44;1032346;28;19906;-69
2022/01/14 02:38:51;;;;;;;;;;;;;;;-5.04;100.00;97642.38;1030963;28;19909;-67
2022/01/14 02:39:21;;;;;;;;;;;;;;;-5.07;100.00;97640.03;1031917;28;19910;-69
2022/01/14 02:39:51;;;;;;;;;;;;;;;-5.11;100.00;97633.53;1027197;28;19914;-69
2022/01/14 02:40:22;;;;;;;;;;;;;;;-5.10;100.00;97633.41;1025033;28;20371;-69
2022/01/14 02:40:52;;;;;;;;;;;;;;;-5.07;100.00;97630.63;1029885;28;19966;-69
2022/01/14 02:41:22;;;;;;;;;;;;;;;-5.07;100.00;97632.38;1027691;28;20302;-69
2022/01/14 02:41:52;;;;;;;;;;;;;;;-5.16;100.00;97630.50;1031675;28;19910;-70
2022/01/14 02:42:23;;;;;;;;;;;;;;;-5.16;100.00;97631.34;1029652;28;19957;-69
2022/01/14 02:42:55;;;;;;;;;;;;;;;-5.12;100.00;97632.72;1035892;28;19967;-69
2022/01/14 02:43:26;;;;;;;;;;;;;;;-5.13;100.00;97626.00;1035860;28;19964;-70
2022/01/14 02:44:02;;;;;;;;;;;;;;;-5.11;100.00;97629.22;1036001;28;19918;-69
2022/01/14 02:44:33;;;;;;;;;;;;;;;-5.13;100.00;97628.56;1033532;28;19939;-69
2022/01/14 02:45:06;;;;;;;;;;;;;;;-5.07;100.00;97624.69;1031930;28;19968;-69
2022/01/14 02:45:37;;;;;;;;;;;;;;;-5.03;100.00;97623.53;1031949;28;19989;-70
2022/01/14 02:46:08;;;;;;;;;;;;;;;-5.07;100.00;97620.38;1027420;28;19914;-69
2022/01/14 02:46:43;;;;;;;;;;;;;;;-5.09;100.00;97622.25;1024772;28;20029;-69
2022/01/14 02:47:13;;;;;;;;;;;;;;;-5.10;100.00;97624.94;1027738;28;20013;-69
2022/01/14 02:47:44;;;;;;;;;;;;;;;-5.11;100.00;97613.88;1028572;28;19938;-69
2022/01/14 02:48:14;;;;;;;;;;;;;;;-5.09;100.00;97617.16;1036351;28;19913;-70
2022/01/14 02:48:44;;;;;;;;;;;;;;;-5.14;100.00;97615.88;1031678;28;19925;-69
2022/01/14 02:49:14;;;;;;;;;;;;;;;-5.15;100.00;97616.81;1032063;28;19922;-70
2022/01/14 02:49:45;;;;;;;;;;;;;;;-5.14;100.00;97616.66;1031543;28;20411;-69
2022/01/14 02:50:20;;;;;;;;;;;;;;;-5.17;100.00;97614.34;1030984;28;19918;-69
2022/01/14 02:51:23;;;;;;;;;;;;;;;-5.12;100.00;97611.47;1031659;28;19914;-70
2022/01/14 02:51:54;;;;;;;;;;;;;;;-5.12;100.00;97608.91;1027920;28;19918;-70
2022/01/14 02:52:40;;;;;;;;;;;;;;;-5.14;100.00;97609.00;1023900;28;20009;-70
2022/01/14 02:53:25;;;;;;;;;;;;;;;-5.17;100.00;97609.22;1024127;29;19950;-70
2022/01/14 02:53:58;;;;;;;;;;;;;;;-5.23;100.00;97609.72;1029561;28;20356;-70
2022/01/14 02:54:33;;;;;;;;;;;;;;;-5.28;100.00;97606.69;1032008;28;19913;-70
2022/01/14 02:55:14;;;;;;;;;;;;;;;-5.32;100.00;97606.09;1027609;28;19925;-67
2022/01/14 02:55:44;;;;;;;;;;;;;;;-5.28;100.00;97606.69;1027642;28;19939;-70
2022/01/14 02:56:16;;;;;;;;;;;;;;;-5.29;100.00;97611.00;1030117;28;19918;-69
2022/01/14 02:56:47;;;;;;;;;;;;;;;-5.28;100.00;97609.25;1027698;28;19918;-70
2022/01/14 02:57:18;;;;;;;;;;;;;;;-5.35;100.00;97605.53;1025703;28;20009;-67
2022/01/14 02:57:52;;;;;;;;;;;;;;;-5.34;100.00;97607.16;1031858;28;19971;-69
2022/01/14 02:58:23;;;;;;;;;;;;;;;-5.36;100.00;97609.84;1025103;28;19968;-69
2022/01/14 02:58:53;;;;;;;;;;;;;;;-5.36;100.00;97609.84;1022785;28;19929;-70
2022/01/14 02:59:23;;;;;;;;;;;;;;;-5.31;100.00;97614.59;1025301;28;19926;-70
2022/01/14 02:59:54;;;;;;;;;;;;;;;-5.30;100.00;97611.09;1022825;28;20339;-70
2022/01/14 03:00:26;;;;;;;;;;;;;;;-5.30;100.00;97611.09;1022539;29;19914;-71
2022/01/14 03:00:58;;;;;;;;;;;;;;;-5.26;100.00;97615.06;1023598;28;19933;-67
2022/01/14 03:01:28;;;;;;;;;;;;;;;-5.28;100.00;97611.81;1028094;28;20403;-71
2022/01/14 03:01:58;;;;;;;;;;;;;;;-5.28;100.00;97607.50;1026828;28;19926;-70